Weather at Rusovce Airstrip

Public forecast

Using degrees Celsius for public forecast. Weather courtesy of forecast.io.

Closest aviation weather report (METAR) to Rusovce Airstrip

Closest report is M. R. Štefánik Airport, 7.7 nm (14.2 km) NNE. Retrieved 2022/07/06 09:00 UTC (8 minutes ago):

LZIB 060900Z 29010KT 270V330 9999 FEW046 23/13 Q1019 NOSIG

Closest aviation forecast (TAF) to Rusovce Airstrip

Closest forecast is M. R. Štefánik Airport, 7.7 nm (14.2 km) NNE. Retrieved 2022/07/06 06:06 UTC (3 hours ago):

TAF LZIB 060515Z 0606/0706 33008KT CAVOK TEMPO 0613/0619 30015G25KT 9999 SHRA FEW030CB PROB40 TEMPO 0615/0618 TSRA BECMG 0618/0620 30004KT BECMG 0700/0702 VRB02KT